createdAt,value
2023-01-27T00:00:35.553Z,16.22
2023-01-27T00:03:02.085Z,16.22
2023-01-27T00:05:28.592Z,16.23
2023-01-27T00:07:58.442Z,16.24
2023-01-27T00:10:25.671Z,16.24
2023-01-27T00:13:10.774Z,16.24
2023-01-27T00:15:37.665Z,16.25
2023-01-27T00:18:04.473Z,16.25
2023-01-27T00:20:49.586Z,16.25
2023-01-27T00:23:37.139Z,16.25
2023-01-27T00:26:08.700Z,16.26
2023-01-27T00:28:37.372Z,16.25
2023-01-27T00:31:06.040Z,16.25
2023-01-27T00:33:32.740Z,16.24
2023-01-27T00:36:06.994Z,16.24
2023-01-27T00:38:41.085Z,16.24
2023-01-27T00:41:20.554Z,16.23
2023-01-27T00:43:48.872Z,16.23
2023-01-27T00:46:16.876Z,16.22
2023-01-27T00:48:43.895Z,16.22
2023-01-27T00:51:11.415Z,16.22
2023-01-27T00:53:38.047Z,16.22
2023-01-27T00:56:05.326Z,16.21
2023-01-27T00:58:32.083Z,16.21
2023-01-27T01:01:01.069Z,16.21
2023-01-27T01:03:32.705Z,16.21
2023-01-27T01:06:00.784Z,16.20
2023-01-27T01:08:27.735Z,16.20
2023-01-27T01:10:54.398Z,16.21
2023-01-27T01:13:21.708Z,16.21
2023-01-27T01:15:48.563Z,16.22
2023-01-27T01:18:15.970Z,16.21
2023-01-27T01:20:45.845Z,16.22
2023-01-27T01:23:15.105Z,16.22
2023-01-27T01:25:42.421Z,16.22
2023-01-27T01:28:09.510Z,16.23
2023-01-27T01:30:37.281Z,16.23
2023-01-27T01:33:04.121Z,16.23
2023-01-27T01:35:31.073Z,16.23
2023-01-27T01:37:57.622Z,16.23
2023-01-27T01:40:25.824Z,16.23
2023-01-27T01:42:57.365Z,16.22
2023-01-27T01:45:36.675Z,16.22
2023-01-27T01:48:09.302Z,16.23
2023-01-27T01:50:37.660Z,16.22
2023-01-27T01:53:06.704Z,16.22
2023-01-27T01:55:35.329Z,16.21
2023-01-27T01:58:03.005Z,16.21
2023-01-27T02:00:29.629Z,16.22
2023-01-27T02:02:56.432Z,16.21
2023-01-27T02:05:29.379Z,16.21
2023-01-27T02:08:02.730Z,16.19
2023-01-27T02:10:29.559Z,16.19
2023-01-27T02:12:56.372Z,16.19
2023-01-27T02:15:23.010Z,16.18
2023-01-27T02:17:50.205Z,16.18
2023-01-27T02:20:53.265Z,16.15
2023-01-27T02:23:56.766Z,16.16
2023-01-27T02:26:36.955Z,16.17
2023-01-27T02:29:08.039Z,16.18
2023-01-27T02:31:35.281Z,16.19
2023-01-27T02:34:09.245Z,16.18
2023-01-27T02:36:42.052Z,16.20
2023-01-27T02:39:09.541Z,16.20
2023-01-27T02:41:49.631Z,16.19
2023-01-27T02:44:16.143Z,16.21
2023-01-27T02:46:43.463Z,16.21
2023-01-27T02:49:10.028Z,16.21
2023-01-27T02:51:36.648Z,16.21
2023-01-27T02:54:03.213Z,16.21
2023-01-27T02:56:29.714Z,16.22
2023-01-27T02:58:56.431Z,16.19
2023-01-27T03:01:24.916Z,16.19
2023-01-27T03:03:52.467Z,16.18
2023-01-27T03:06:19.918Z,16.18
2023-01-27T03:08:46.478Z,16.17
2023-01-27T03:11:13.027Z,16.16
2023-01-27T03:13:39.646Z,16.15
2023-01-27T03:16:25.437Z,16.13
2023-01-27T03:18:53.695Z,16.12
2023-01-27T03:21:20.296Z,16.11
2023-01-27T03:23:49.190Z,16.10
2023-01-27T03:26:16.161Z,16.08
2023-01-27T03:28:42.977Z,16.08
2023-01-27T03:31:19.768Z,16.08
2023-01-27T03:33:47.785Z,16.08
2023-01-27T03:36:34.481Z,16.08
2023-01-27T03:39:19.465Z,16.08
2023-01-27T03:42:04.344Z,16.07
2023-01-27T03:44:49.440Z,16.09
2023-01-27T03:47:15.957Z,16.08
2023-01-27T03:49:42.527Z,16.06
2023-01-27T03:52:09.017Z,16.06
2023-01-27T03:54:35.560Z,16.04
2023-01-27T03:57:05.891Z,16.03
2023-01-27T03:59:32.937Z,16.02
2023-01-27T04:02:18.937Z,16.02
2023-01-27T04:05:04.383Z,16.02
2023-01-27T04:07:30.969Z,16.01
2023-01-27T04:09:57.463Z,15.99
2023-01-27T04:12:24.169Z,15.99
2023-01-27T04:14:50.676Z,15.99
2023-01-27T04:17:19.260Z,15.97
2023-01-27T04:19:46.773Z,15.98
2023-01-27T04:22:15.605Z,15.97
2023-01-27T04:24:42.447Z,15.97
2023-01-27T04:27:13.847Z,15.98
2023-01-27T04:29:42.124Z,15.97
2023-01-27T04:32:10.506Z,15.98
2023-01-27T04:34:37.427Z,15.97
2023-01-27T04:37:05.624Z,15.97
2023-01-27T04:39:32.395Z,15.96
2023-01-27T04:41:58.916Z,15.96
2023-01-27T04:44:25.721Z,15.95
2023-01-27T04:46:54.013Z,15.95
2023-01-27T04:49:20.682Z,15.95
2023-01-27T04:51:47.554Z,15.96
2023-01-27T04:54:14.441Z,15.96
2023-01-27T04:56:53.535Z,15.97
2023-01-27T04:59:20.087Z,15.98
2023-01-27T05:01:46.667Z,16.00
2023-01-27T05:04:13.228Z,16.01
2023-01-27T05:06:39.732Z,16.02
2023-01-27T05:09:06.288Z,16.02
2023-01-27T05:11:32.808Z,16.03
2023-01-27T05:13:59.309Z,16.04
2023-01-27T05:16:27.504Z,16.04
2023-01-27T05:18:54.262Z,16.04
2023-01-27T05:21:24.084Z,16.05
2023-01-27T05:23:51.339Z,16.04
2023-01-27T05:26:23.845Z,16.02
2023-01-27T05:28:52.227Z,16.03
2023-01-27T05:31:21.999Z,16.02
2023-01-27T05:33:53.808Z,16.03
2023-01-27T05:36:23.300Z,16.01
2023-01-27T05:38:49.808Z,16.02
2023-01-27T05:41:17.789Z,16.01
2023-01-27T05:43:46.336Z,16.01
2023-01-27T05:46:21.155Z,16.01
2023-01-27T05:48:55.951Z,15.98
2023-01-27T05:51:24.406Z,16.01
2023-01-27T05:53:51.413Z,15.99
2023-01-27T05:56:19.474Z,16.00
2023-01-27T05:58:46.441Z,16.01
2023-01-27T06:01:14.000Z,16.00
2023-01-27T06:03:41.430Z,16.01
2023-01-27T06:06:09.626Z,15.99
2023-01-27T06:08:36.890Z,15.99
2023-01-27T06:11:04.349Z,16.01
2023-01-27T06:13:31.429Z,16.01
2023-01-27T06:15:58.103Z,16.01
2023-01-27T06:18:24.645Z,16.00
2023-01-27T06:20:51.182Z,16.00
2023-01-27T06:23:18.076Z,16.00
2023-01-27T06:25:47.755Z,16.02
2023-01-27T06:28:28.134Z,16.03
2023-01-27T06:30:55.967Z,16.04
2023-01-27T06:33:22.634Z,16.04
2023-01-27T06:35:49.352Z,16.04
2023-01-27T06:38:15.870Z,16.03
2023-01-27T06:40:43.142Z,16.03
2023-01-27T06:43:14.746Z,16.00
2023-01-27T06:45:41.518Z,16.01
2023-01-27T06:48:08.735Z,16.00
2023-01-27T06:50:36.835Z,16.00
2023-01-27T06:53:06.785Z,16.00
2023-01-27T06:55:34.885Z,16.00
2023-01-27T06:58:02.541Z,16.00
2023-01-27T07:00:29.106Z,16.00
2023-01-27T07:02:56.608Z,15.98
2023-01-27T07:05:24.151Z,15.99
2023-01-27T07:07:50.660Z,15.98
2023-01-27T07:10:17.525Z,15.97
2023-01-27T07:12:44.032Z,15.95
2023-01-27T07:15:11.403Z,15.95
2023-01-27T07:17:38.243Z,15.95
2023-01-27T07:20:07.081Z,15.93
2023-01-27T07:22:33.630Z,15.95
2023-01-27T07:25:00.128Z,15.93
2023-01-27T07:27:26.696Z,15.92
2023-01-27T07:29:53.253Z,15.91
2023-01-27T07:32:19.765Z,15.91
2023-01-27T07:34:46.424Z,15.91
2023-01-27T07:37:13.620Z,15.91
2023-01-27T07:39:40.125Z,15.90
2023-01-27T07:42:06.832Z,15.91
2023-01-27T07:44:33.459Z,15.91
2023-01-27T07:47:00.185Z,15.91
2023-01-27T07:49:27.591Z,15.90
2023-01-27T07:51:54.394Z,15.92
2023-01-27T07:54:20.935Z,15.92
2023-01-27T07:56:47.493Z,15.92
2023-01-27T07:59:14.567Z,15.91
2023-01-27T08:01:41.917Z,15.93
2023-01-27T08:04:08.704Z,15.94
2023-01-27T08:06:38.164Z,15.93
2023-01-27T08:09:04.696Z,15.94
2023-01-27T08:11:31.480Z,15.94
2023-01-27T08:13:58.035Z,15.95
2023-01-27T08:16:24.571Z,15.94
2023-01-27T08:18:53.752Z,15.94
2023-01-27T08:21:20.864Z,15.95
2023-01-27T08:23:47.512Z,15.95
2023-01-27T08:26:14.180Z,15.96
2023-01-27T08:28:41.008Z,15.96
2023-01-27T08:31:15.936Z,15.97
2023-01-27T08:33:44.930Z,16.02
2023-01-27T08:36:16.448Z,16.07
2023-01-27T08:38:44.712Z,16.11
2023-01-27T08:41:20.969Z,16.14
2023-01-27T08:43:48.231Z,16.19
2023-01-27T08:46:15.665Z,16.24
2023-01-27T08:48:42.764Z,16.28
2023-01-27T08:51:11.262Z,16.33
2023-01-27T08:53:37.754Z,16.38
2023-01-27T08:56:07.303Z,16.41
2023-01-27T08:58:34.504Z,16.45
2023-01-27T09:01:02.616Z,16.49
2023-01-27T09:03:30.553Z,16.51
2023-01-27T09:05:57.796Z,16.56
2023-01-27T09:08:24.755Z,16.58
2023-01-27T09:10:51.582Z,16.62
2023-01-27T09:13:18.780Z,16.66
2023-01-27T09:15:46.325Z,16.69
2023-01-27T09:18:12.910Z,16.71
2023-01-27T09:20:39.496Z,16.74
2023-01-27T09:23:06.209Z,16.77
2023-01-27T09:25:32.701Z,16.80
2023-01-27T09:28:00.429Z,16.84
2023-01-27T09:30:28.263Z,16.87
2023-01-27T09:33:01.688Z,16.89
2023-01-27T09:35:37.970Z,16.92
2023-01-27T09:38:06.742Z,16.95
2023-01-27T09:40:55.831Z,16.98
2023-01-27T09:43:56.624Z,16.98
2023-01-27T09:46:38.371Z,17.00
2023-01-27T09:49:14.679Z,16.98
2023-01-27T09:52:02.650Z,16.98
2023-01-27T09:54:57.656Z,16.95
2023-01-27T09:57:44.963Z,16.94
2023-01-27T10:00:29.737Z,16.94
2023-01-27T10:02:59.155Z,16.95
2023-01-27T10:05:43.577Z,16.97
2023-01-27T10:08:37.588Z,16.99
2023-01-27T10:11:28.447Z,17.01
2023-01-27T10:14:09.205Z,17.03
2023-01-27T10:16:52.071Z,17.05
2023-01-27T10:19:37.149Z,17.05
2023-01-27T10:22:15.767Z,17.06
2023-01-27T10:24:49.301Z,17.07
2023-01-27T10:27:20.572Z,17.10
2023-01-27T10:30:08.405Z,17.12
2023-01-27T10:32:43.384Z,17.15
2023-01-27T10:35:27.742Z,17.14
2023-01-27T10:38:06.594Z,17.15
2023-01-27T10:40:36.174Z,17.15
2023-01-27T10:43:34.996Z,17.13
2023-01-27T10:46:36.292Z,17.12
2023-01-27T10:49:24.325Z,17.12
2023-01-27T10:52:05.659Z,17.12
2023-01-27T10:54:44.684Z,17.11
2023-01-27T10:57:30.674Z,17.12
2023-01-27T11:03:38.212Z,17.12
2023-01-27T11:06:11.236Z,17.15
2023-01-27T11:08:41.911Z,17.15
2023-01-27T11:11:28.788Z,17.17
2023-01-27T11:14:04.698Z,17.18
2023-01-27T11:16:38.731Z,17.18
2023-01-27T11:19:23.879Z,17.19
2023-01-27T11:22:06.785Z,17.19
2023-01-27T11:24:34.445Z,17.19
2023-01-27T11:27:14.012Z,17.21
2023-01-27T11:29:49.211Z,17.20
2023-01-27T11:32:33.733Z,17.21
2023-01-27T11:35:03.977Z,17.19
2023-01-27T11:37:47.601Z,17.19
2023-01-27T11:40:28.052Z,17.18
2023-01-27T11:42:58.168Z,17.16
2023-01-27T11:45:26.014Z,17.16
2023-01-27T11:47:59.060Z,17.14
2023-01-27T11:50:31.922Z,17.15
2023-01-27T11:53:16.710Z,17.12
2023-01-27T11:55:48.784Z,17.13
2023-01-27T11:58:24.941Z,17.10
2023-01-27T12:01:01.836Z,17.09
2023-01-27T12:03:53.273Z,17.09
2023-01-27T12:06:40.910Z,17.08
2023-01-27T12:09:27.386Z,17.08
2023-01-27T12:12:11.199Z,17.05
2023-01-27T12:14:38.026Z,17.06
2023-01-27T12:17:07.755Z,17.05
2023-01-27T12:19:56.669Z,17.02
2023-01-27T12:22:34.077Z,17.03
2023-01-27T12:25:04.152Z,17.05
2023-01-27T12:27:37.024Z,17.04
2023-01-27T12:30:08.179Z,17.01
2023-01-27T12:32:40.541Z,17.00
2023-01-27T12:35:35.883Z,17.00
2023-01-27T12:38:07.186Z,17.01
2023-01-27T12:40:34.573Z,17.00
2023-01-27T12:43:13.592Z,16.99
2023-01-27T12:45:41.181Z,16.99
2023-01-27T12:48:07.662Z,16.99
2023-01-27T12:50:38.619Z,16.98
2023-01-27T12:53:16.059Z,16.96
2023-01-27T12:56:08.892Z,16.95
2023-01-27T12:58:58.285Z,16.94
2023-01-27T13:01:32.141Z,16.95
2023-01-27T13:04:27.107Z,16.94
2023-01-27T13:07:08.734Z,16.94
2023-01-27T13:09:48.470Z,16.95
2023-01-27T13:12:28.394Z,16.93
2023-01-27T13:15:06.141Z,16.94
2023-01-27T13:17:35.351Z,16.95
2023-01-27T13:20:08.444Z,16.94
2023-01-27T13:22:43.769Z,16.95
2023-01-27T13:25:19.098Z,16.94
2023-01-27T13:27:48.775Z,16.94
2023-01-27T13:30:31.774Z,16.93
2023-01-27T13:33:04.214Z,16.94
2023-01-27T13:35:41.799Z,16.94
2023-01-27T13:38:37.837Z,16.92
2023-01-27T13:41:15.548Z,16.93
2023-01-27T13:43:57.017Z,16.93
2023-01-27T13:46:31.578Z,16.94
2023-01-27T13:49:17.111Z,16.95
2023-01-27T13:51:43.626Z,16.95
2023-01-27T13:54:13.538Z,16.95
2023-01-27T13:57:13.548Z,16.93
2023-01-27T13:59:44.013Z,16.94
2023-01-27T14:02:45.235Z,16.92
2023-01-27T14:05:11.687Z,16.91
2023-01-27T14:07:48.628Z,16.89
2023-01-27T14:10:20.987Z,16.90
2023-01-27T14:13:15.014Z,16.89
2023-01-27T14:15:50.485Z,16.89
2023-01-27T14:18:22.057Z,16.88
2023-01-27T14:20:48.760Z,16.85
2023-01-27T14:23:38.914Z,16.83
2023-01-27T14:26:25.745Z,16.83
2023-01-27T14:29:01.316Z,16.82
2023-01-27T14:31:37.249Z,16.80
2023-01-27T14:34:09.844Z,16.78
2023-01-27T14:36:43.013Z,16.78
2023-01-27T14:39:25.269Z,16.80
2023-01-27T14:41:57.555Z,16.84
2023-01-27T14:44:44.228Z,16.85
2023-01-27T14:47:31.322Z,16.87
2023-01-27T14:50:06.678Z,16.89
2023-01-27T14:52:37.391Z,16.91
2023-01-27T14:55:28.394Z,16.92
2023-01-27T14:58:16.500Z,16.94
2023-01-27T15:00:45.918Z,16.94
2023-01-27T15:03:32.828Z,16.94
2023-01-27T15:06:14.557Z,16.97
2023-01-27T15:08:57.727Z,16.96
2023-01-27T15:12:01.785Z,16.97
2023-01-27T15:14:49.292Z,16.98
2023-01-27T15:17:49.654Z,16.97
2023-01-27T15:20:30.600Z,16.97
2023-01-27T15:23:19.350Z,16.92
2023-01-27T15:26:06.631Z,16.92
2023-01-27T15:28:38.407Z,16.89
2023-01-27T15:31:16.701Z,16.87
2023-01-27T15:33:55.154Z,16.82
2023-01-27T15:36:27.783Z,16.80
2023-01-27T15:39:09.345Z,16.73
2023-01-27T15:41:53.152Z,16.74
2023-01-27T15:44:30.680Z,16.68
2023-01-27T15:47:14.994Z,16.65
2023-01-27T15:49:48.316Z,16.63
2023-01-27T15:52:45.057Z,16.56
2023-01-27T15:55:27.570Z,16.53
2023-01-27T15:58:22.392Z,16.51
2023-01-27T16:00:51.516Z,16.50
2023-01-27T16:03:33.216Z,16.46
2023-01-27T16:06:09.781Z,16.46
2023-01-27T16:08:44.843Z,16.43
2023-01-27T16:11:29.519Z,16.40
2023-01-27T16:14:11.176Z,16.39
2023-01-27T16:16:58.386Z,16.39
2023-01-27T16:19:34.423Z,16.38
2023-01-27T16:22:05.323Z,16.37
2023-01-27T16:24:56.121Z,16.35
2023-01-27T16:27:36.324Z,16.33
2023-01-27T16:30:18.297Z,16.29
2023-01-27T16:33:06.309Z,16.28
2023-01-27T16:35:58.402Z,16.26
2023-01-27T16:38:31.770Z,16.25
2023-01-27T16:41:09.201Z,16.22
2023-01-27T16:43:49.775Z,16.21
2023-01-27T16:46:31.549Z,16.19
2023-01-27T16:48:59.638Z,16.18
2023-01-27T16:51:29.528Z,16.15
2023-01-27T16:54:00.267Z,16.13
2023-01-27T16:56:35.418Z,16.10
2023-01-27T16:59:06.160Z,16.11
2023-01-27T17:01:47.606Z,16.08
2023-01-27T17:04:20.598Z,16.07
2023-01-27T17:06:48.820Z,16.08
2023-01-27T17:09:41.711Z,16.04
2023-01-27T17:12:39.688Z,16.03
2023-01-27T17:15:29.070Z,16.02
2023-01-27T17:17:57.684Z,16.03
2023-01-27T17:20:29.802Z,16.02
2023-01-27T17:22:56.690Z,16.00
2023-01-27T17:25:34.664Z,16.01
2023-01-27T17:28:04.449Z,15.97
2023-01-27T17:30:39.419Z,15.96
2023-01-27T17:33:08.362Z,15.96
2023-01-27T17:35:39.766Z,15.95
2023-01-27T17:38:24.713Z,15.92
2023-01-27T17:40:53.820Z,15.92
2023-01-27T17:43:37.562Z,15.91
2023-01-27T17:46:18.979Z,15.89
2023-01-27T17:49:03.319Z,15.88
2023-01-27T17:51:40.717Z,15.88
2023-01-27T17:54:23.077Z,15.87
2023-01-27T17:56:56.631Z,15.87
2023-01-27T17:59:26.615Z,15.88
2023-01-27T18:01:55.215Z,15.87
2023-01-27T18:04:24.049Z,15.87
2023-01-27T18:06:51.700Z,15.86
2023-01-27T18:09:25.429Z,15.86
2023-01-27T18:11:53.780Z,15.84
2023-01-27T18:14:21.347Z,15.87
2023-01-27T18:17:01.140Z,15.84
2023-01-27T18:19:27.928Z,15.84
2023-01-27T18:22:20.729Z,15.81
2023-01-27T18:24:50.350Z,15.82
2023-01-27T18:27:21.845Z,15.81
2023-01-27T18:29:52.999Z,15.80
2023-01-27T18:32:24.380Z,15.81
2023-01-27T18:34:56.745Z,15.78
2023-01-27T18:37:36.227Z,15.76
2023-01-27T18:40:24.354Z,15.73
2023-01-27T18:42:55.100Z,15.75
2023-01-27T18:45:21.787Z,15.73
2023-01-27T18:47:48.363Z,15.73
2023-01-27T18:50:21.883Z,15.71
2023-01-27T18:52:49.701Z,15.72
2023-01-27T18:55:30.197Z,15.70
2023-01-27T18:57:59.091Z,15.70
2023-01-27T19:00:37.845Z,15.68
2023-01-27T19:03:11.659Z,15.68
2023-01-27T19:05:38.246Z,15.68
2023-01-27T19:08:05.065Z,15.67
2023-01-27T19:10:34.235Z,15.66
2023-01-27T19:13:02.566Z,15.68
2023-01-27T19:15:33.286Z,15.64
2023-01-27T19:18:03.033Z,15.66
2023-01-27T19:20:30.936Z,15.64
2023-01-27T19:22:58.697Z,15.64
2023-01-27T19:25:29.331Z,15.63
2023-01-27T19:28:01.458Z,15.62
2023-01-27T19:30:32.699Z,15.62
2023-01-27T19:32:59.345Z,15.61
2023-01-27T19:35:28.552Z,15.60
2023-01-27T19:37:56.313Z,15.60
2023-01-27T19:40:26.352Z,15.60
2023-01-27T19:42:53.213Z,15.60
2023-01-27T19:45:21.277Z,15.60
2023-01-27T19:47:49.543Z,15.57
2023-01-27T19:50:25.185Z,15.58
2023-01-27T19:52:52.240Z,15.57
2023-01-27T19:55:20.734Z,15.58
2023-01-27T19:57:48.719Z,15.57
2023-01-27T20:00:28.865Z,15.57
2023-01-27T20:02:56.368Z,15.56
2023-01-27T20:05:24.430Z,15.55
2023-01-27T20:07:51.775Z,15.55
2023-01-27T20:10:25.412Z,15.53
2023-01-27T20:12:54.568Z,15.53
2023-01-27T20:15:24.233Z,15.52
2023-01-27T20:17:52.356Z,15.51
2023-01-27T20:20:19.470Z,15.50
2023-01-27T20:22:46.193Z,15.49
2023-01-27T20:25:15.176Z,15.49
2023-01-27T20:27:43.300Z,15.49
2023-01-27T20:30:34.017Z,15.45
2023-01-27T20:33:02.191Z,15.48
2023-01-27T20:35:29.249Z,15.47
2023-01-27T20:37:56.048Z,15.47
2023-01-27T20:40:24.899Z,15.47
2023-01-27T20:42:52.262Z,15.46
2023-01-27T20:45:19.334Z,15.47
2023-01-27T20:47:50.819Z,15.45
2023-01-27T20:50:17.797Z,15.44
2023-01-27T20:52:44.894Z,15.44
2023-01-27T20:55:13.373Z,15.45
2023-01-27T20:57:40.067Z,15.45
2023-01-27T21:00:07.662Z,15.44
2023-01-27T21:02:34.399Z,15.44
2023-01-27T21:05:00.960Z,15.43
2023-01-27T21:07:27.587Z,15.43
2023-01-27T21:09:55.065Z,15.42
2023-01-27T21:12:21.652Z,15.42
2023-01-27T21:14:48.426Z,15.41
2023-01-27T21:17:15.316Z,15.41
2023-01-27T21:19:41.867Z,15.40
2023-01-27T21:22:08.426Z,15.39
2023-01-27T21:24:35.627Z,15.38
2023-01-27T21:27:02.285Z,15.37
2023-01-27T21:29:28.853Z,15.37
2023-01-27T21:31:55.600Z,15.36
2023-01-27T21:34:22.864Z,15.37
2023-01-27T21:36:49.499Z,15.35
2023-01-27T21:39:16.279Z,15.35
2023-01-27T21:41:55.127Z,15.35
2023-01-27T21:44:42.357Z,15.33
2023-01-27T21:47:14.097Z,15.32
2023-01-27T21:50:00.692Z,15.32
2023-01-27T21:52:49.241Z,15.31
2023-01-27T21:55:22.113Z,15.31
2023-01-27T21:57:50.900Z,15.31
2023-01-27T22:00:20.164Z,15.31
2023-01-27T22:02:56.679Z,15.31
2023-01-27T22:05:23.439Z,15.29
2023-01-27T22:07:50.529Z,15.28
2023-01-27T22:10:19.756Z,15.28
2023-01-27T22:12:46.925Z,15.27
2023-01-27T22:15:16.749Z,15.27
2023-01-27T22:17:44.202Z,15.28
2023-01-27T22:20:17.770Z,15.25
2023-01-27T22:22:45.161Z,15.27
2023-01-27T22:25:15.173Z,15.27
2023-01-27T22:27:42.748Z,15.27
2023-01-27T22:30:13.538Z,15.26
2023-01-27T22:32:40.542Z,15.27
2023-01-27T22:35:07.694Z,15.27
2023-01-27T22:37:35.782Z,15.26
2023-01-27T22:40:02.365Z,15.27
2023-01-27T22:42:28.930Z,15.27
2023-01-27T22:44:55.458Z,15.27
2023-01-27T22:47:22.092Z,15.30
2023-01-27T22:49:48.605Z,15.31
2023-01-27T22:52:16.617Z,15.30
2023-01-27T22:54:43.781Z,15.31
2023-01-27T22:57:10.343Z,15.32
2023-01-27T22:59:36.880Z,15.32
2023-01-27T23:02:03.561Z,15.31
2023-01-27T23:04:30.045Z,15.31
2023-01-27T23:06:56.543Z,15.31
2023-01-27T23:09:23.017Z,15.30
2023-01-27T23:11:49.541Z,15.29
2023-01-27T23:14:16.203Z,15.30
2023-01-27T23:16:42.760Z,15.28
2023-01-27T23:19:09.574Z,15.29
2023-01-27T23:21:36.420Z,15.27
2023-01-27T23:24:02.992Z,15.26
2023-01-27T23:26:29.634Z,15.25
2023-01-27T23:28:56.189Z,15.26
2023-01-27T23:31:22.721Z,15.26
2023-01-27T23:33:49.339Z,15.25
2023-01-27T23:36:15.886Z,15.24
2023-01-27T23:38:42.452Z,15.23
2023-01-27T23:41:18.392Z,15.25
2023-01-27T23:43:50.325Z,15.25
2023-01-27T23:46:16.877Z,15.24
2023-01-27T23:48:43.542Z,15.23
2023-01-27T23:51:13.176Z,15.23
2023-01-27T23:53:39.696Z,15.22
2023-01-27T23:56:06.808Z,15.23
2023-01-27T23:58:33.355Z,15.23
